Garden Spring, Nevada Weather observations

Data are for 10 minute period ending at time listed.
 Day   Time    Ave.   Ave.  Ave.  Vector   Max.   Stn.    Total    Solar   Ave.  
  of    of     Air    Rel.  Wind   Wind    Wind   Baro.  Precip.   Rad.    Soil  
Year   Day     Temp.  Hum.  Speed  Dir.    Gust   Pres.                    Temp. 
2026   (PST)    F      %     mph   deg.    mph     mb.     in.     W/m2     F    
--------------------------------------------------------------------------------- 
 121   10:20   67.3    14    8.3    36     15.8   853.4    0.00     956    61.7  
 121   10:30   68.0    14    8.4    25     15.2   853.2    0.00    1024    62.0  
 121   10:40   67.8    14    9.9    21     16.7   853.2    0.00    1024    62.3  
 121   10:50   67.7    14    8.6    32     17.3   853.3    0.00    1056    62.5  
 121   11:00   68.4    14    6.9    18     16.8   853.2    0.00     902    62.7  
 121   11:10   67.9    14    9.3    27     17.1   853.1    0.00     764    63.0  
 121   11:20   66.5    14    8.2    26     17.7   853.1    0.00     606    63.1  
 121   11:30   67.7    14    7.5    20     15.4   853.0    0.00     544    63.5  
 121   11:40   66.1    14    6.7    30     14.7   852.9    0.00     369    63.9  
 121   11:50   66.6    14    7.1    34     11.9   852.8    0.00     519    64.2  
 121   12:00   67.0    14    5.7    53     14.6   852.8    0.00     762    64.7  
 121   12:10   67.5    14    6.8    29     13.7   852.6    0.00     696    65.2  
 121   12:20   68.6    14    6.9    34     13.9   852.6    0.00     598    65.8  
 121   12:30   67.8    14    5.1     7     11.2   852.6    0.00     671    66.0  
 121   12:40   71.7    12    5.8    63     13.3   852.6    0.00    1122    66.8  
 121   12:50   69.1    13    7.1    29     14.6   852.6    0.00     589    67.1  
 121   13:00   69.3    13    3.7    43     13.2   852.5    0.00     726    67.0  
 121   13:10   70.9    12    9.1    42     21.4   852.3    0.00     780    67.6  
 121   13:20   68.1    13    5.8    52     12.2   852.3    0.00     476    67.6  
 121   13:30   68.6    13    4.8    61     11.5   852.2    0.00     401    67.7  
 121   13:40   69.0    12    6.4   354     12.5   852.1    0.00     518    68.0  
 121   13:50   70.3    12    6.1   360     10.5   852.0    0.00    1000    68.5  
 121   14:00   73.0    11    5.9   323     13.7   851.9    0.00    1101    69.6  
 121   14:10   70.9    12    8.1    16     16.3   851.8    0.00     707    69.8  
 121   14:20   71.2    11    7.7    15     13.0   851.8    0.00     795    69.5  
 121   14:30   71.9    11    6.8   341     13.8   851.7    0.00     779    69.8  
 121   14:40   71.5    11    5.9   360     14.7   851.5    0.00     574    70.0  
 121   14:50   70.3    11    7.7     0     19.2   851.5    0.00     452    69.9  
 121   15:00   69.4    11    6.2    40     13.0   851.4    0.00     386    69.9  
 121   15:10   70.8    11    6.6    16     11.9   851.4    0.00     687    70.2  
 121   15:20   72.1    10    4.7   301     11.4   851.3    0.00     755    70.9  
 121   15:30   73.0    10    7.0    18     15.3   851.3    0.00     667    71.4  
 121   15:40   72.6    10    7.4     6     16.4   851.4    0.00     604    71.5  
 121   15:50   72.0    10    8.4    16     18.6   851.4    0.00     571    71.4  
 121   16:00   71.9    10    6.5    55     14.4   851.5    0.00     527    71.4  
 121   16:10   71.2    10    6.4    70     14.3   851.5    0.00     487    71.5  
 121   16:20   72.1     9    5.5    35     13.8   851.5    0.00     442    71.7  
 121   16:30   71.6    10    4.6    40      9.8   851.4    0.00     404    71.7  
 121   16:40   71.1    10    6.0    53     11.1   851.4    0.00     367    71.7  
 121   16:50   71.3     9    6.7    18     12.2   851.5    0.00     329    71.7  
 121   17:00   70.5     9    7.7    36     16.3   851.5    0.00     291    71.6  
 121   17:10   70.1    10    7.2     5     13.1   851.6    0.00     255    71.5  
 121   17:20   69.8    10    5.7    29     16.3   851.6    0.00     218    71.4  
 121   17:30   68.3    11    6.8    70     13.5   851.6    0.00     183    71.3  
 121   17:40   67.7    11    6.3    62     11.7   851.6    0.00     150    71.2  
 121   17:50   67.2    11    5.8    63     12.7   851.7    0.00     114    71.1  
 121   18:00   66.1    12    5.4    57     10.3   851.8    0.00      62    70.9  
 121   18:10   64.6    12    4.6    55     12.2   851.9    0.00      17    70.7  
 121   18:20   63.0    13    2.8    47      5.5   852.0    0.00      12    70.4  
 121   18:30   62.5    13    4.7    42      7.9   852.1    0.00       6    70.2  
 121   18:40   62.2    12    4.2    50      8.4   852.2    0.00       2    70.1  
 121   18:50   61.0    13    1.0    33      4.6   852.3    0.00       1    70.0  
 121   19:00   59.0    14    1.9   342      4.6   852.5    0.00       0    69.7  
 121   19:10   57.9    14    2.6     6      6.2   852.6    0.00       0    69.5  
 121   19:20   58.8    14    3.8    16      8.4   852.7    0.00       0    69.4  
 121   19:30   58.9    14    3.9    12      7.9   852.9    0.00       0    69.4  
 121   19:40   59.4    13    5.3    28     10.6   853.1    0.00       0    69.3  
 121   19:50   59.5    13    3.9    17      7.8   853.2    0.00       0    69.3  
 121   20:00   59.3    14    4.6    19      8.9   853.3    0.00       0    69.1  
 121   20:10   59.4    14    4.3    24      7.7   853.4    0.00       0    68.9  
 121   20:20   59.5    14    4.2    12      7.6   853.6    0.00       0    68.7  
 121   20:30   59.5    14    4.4    11      8.3   853.7    0.00       0    68.5  
 121   20:40   59.0    14    3.7   348      6.3   853.8    0.00       0    68.3  
 121   20:50   58.7    15    3.4   338      6.3   853.9    0.00       0    68.0  
 121   21:00   58.7    15    4.5   355      7.4   853.9    0.00       0    67.8  
 121   21:10   58.9    15    4.6    20     12.8   854.0    0.00       0    67.7  
 121   21:20   59.2    15    5.3    18     10.7   854.0    0.00       0    67.5  
 121   21:30   59.6    14    6.7    24     13.3   854.0    0.00       0    67.3  
 121   21:40   59.7    14    6.1    28     10.7   854.1    0.00       0    67.2  
 121   21:50   59.3    15    5.7    21     11.4   854.1    0.00       0    67.0  
 121   22:00   59.3    15    6.2    19     11.0   854.1    0.00       0    66.7  
 121   22:10   59.6    15    6.6    23     10.6   854.1    0.00       0    66.6  
 121   22:20   59.3    16    6.0    25     11.0   854.2    0.00       0    66.4  
 121   22:30   59.1    17    5.9    18     10.6   854.3    0.00       0    66.1  
 121   22:40   59.4    16    7.0    15     12.8   854.3    0.00       0    66.0  
 121   22:50   59.5    16    6.5    16     11.4   854.3    0.00       0    65.8  
 121   23:00   59.7    15    7.3    11     12.6   854.4    0.00       0    65.6  
 121   23:10   59.5    15    6.5     8     13.8   854.4    0.00       0    65.5  
 121   23:20   59.7    15    6.9     8     11.8   854.4    0.00       0    65.3  
 121   23:30   59.6    15    6.2     3     13.9   854.5    0.00       0    65.1  
 121   23:40   58.9    16    3.7   344      8.9   854.5    0.00       0    64.9  
 121   23:50   57.8    18    3.3   337      8.0   854.4    0.00       0    64.6  
 122    0:00   57.7    18    3.7   336      7.8   854.4    0.00       0    64.4  
 122    0:10   57.9    18    4.2   329      8.7   854.4    0.00       0    64.3  
 122    0:20   56.7    19    4.4   301      7.9   854.3    0.00       0    64.1  
 122    0:30   55.8    19    4.4   305      7.5   854.3    0.00       0    63.9  
 122    0:40   55.6    20    3.2   304      6.8   854.2    0.00       0    63.8  
 122    0:50   55.5    20    3.2   299      6.0   854.2    0.00       0    63.6  
 122    1:00   54.0    22    4.7   281      6.6   854.1    0.00       0    63.4  
 122    1:10   53.4    23    5.4   274      8.2   854.1    0.00       0    63.2  
 122    1:20   52.5    24    4.2   270      7.6   854.0    0.00       0    63.1  
 122    1:30   52.2    24    3.7   278      6.0   854.0    0.00       0    62.9  
 122    1:40   52.2    24    3.3   279      5.4   854.0    0.00       0    62.8  
 122    1:50   52.6    24    2.3   267      5.7   854.0    0.00       0    62.6  
 122    2:00   53.4    22    2.0   352      6.2   854.0    0.00       0    62.5  
 122    2:10   53.8    22    2.5   314      6.0   854.0    0.00       0    62.4  
 122    2:20   52.4    24    3.8   281      5.9   854.0    0.00       0    62.3  
 122    2:30   52.1    24    3.6   287      6.7   854.0    0.00       0    62.2  
 122    2:40   51.2    26    4.2   279      6.5   854.1    0.00       0    62.0  
 122    2:50   51.4    25    4.2   275      6.8   854.1    0.00       0    61.9  
 122    3:00   51.5    25    4.4   279      6.8   854.0    0.00       0    61.8  
 122    3:10   51.7    25    4.5   283      6.5   854.0    0.00       0    61.7  
 122    3:20   51.2    26    4.2   281      7.1   854.0    0.00       0    61.5  
 122    3:30   50.7    26    4.5   268      6.5   853.9    0.00       0    61.4  
 122    3:40   50.9    26    5.1   267      7.6   854.0    0.00       0    61.2  
 122    3:50   51.2    26    3.5   275      5.6   854.0    0.00       0    61.1  
 122    4:00   49.9    28    4.6   275      7.2   854.0    0.00       0    60.9  
 122    4:10   50.4    26    4.1   276      6.8   854.0    0.00       0    60.8  
 122    4:20   50.2    27    4.4   270      6.9   854.1    0.00       0    60.7  
 122    4:30   50.5    27    4.4   265      7.4   854.1    0.00       1    60.6  
 122    4:40   49.5    29    4.9   274      7.9   854.1    0.00       3    60.5  
 122    4:50   49.8    28    5.5   260      7.1   854.2    0.00       8    60.3  
 122    5:00   50.4    28    4.6   270      6.3   854.3    0.00      20    60.2  
 122    5:10   51.3    27    5.3   262      8.3   854.3    0.00      42    60.2  
 122    5:20   52.2    28    4.1   272      5.6   854.4    0.00      74    60.4  
 122    5:30   53.1    29    4.3   264      5.7   854.5    0.00     114    60.5  
 122    5:40   56.0    26    4.0   266      6.3   854.6    0.00     146    60.7  
 122    5:50   58.2    24    3.7   264      7.2   854.7    0.00     186    61.0  
 122    6:00   60.9    20    3.2   249      5.2   854.8    0.00     223    61.2  
 122    6:10   62.7    17    1.7   223      4.4   854.9    0.00     240    61.1  
 122    6:20   64.3    16    2.5   128      7.9   855.0    0.00     290    60.9  
 122    6:30   64.5    15    2.5   164      4.9   855.0    0.00     337    61.0  
 122    6:40   65.2    15    2.5   152      4.9   855.1    0.00     371    60.9  
 122    6:50   65.7    15    4.3    94      7.9   855.0    0.00     387    60.5  
 122    7:00   65.6    14    5.4    95      9.5   855.0    0.00     444    60.3  
 122    7:10   66.1    14    5.8    75      9.9   855.1    0.00     485    60.3  
 122    7:20   67.1    14    5.8    94     13.0   855.1    0.00     526    60.3  
 122    7:30   66.3    13    7.8    96     13.4   855.1    0.00     540    60.2  
 122    7:40   66.3    13    7.5    89     13.0   855.2    0.00     576    60.0  
 122    7:50   67.3    13    6.7    82     12.7   855.2    0.00     616    60.0  
 122    8:00   67.0    12    8.1    89     12.5   855.2    0.00     654    60.0  
 122    8:10   67.6    12    7.0    97     14.9   855.2    0.00     693    60.0  
 122    8:20   68.3    11    6.8    98     11.6   855.3    0.00     708    60.0  
 122    8:30   68.3    11    6.2    92     12.4   855.3    0.00     750    60.1  
 122    8:40   69.4    11    5.1    88     11.1   855.3    0.00     766    60.3  
 122    8:50   68.4    10    5.7   118     11.1   855.3    0.00     791    60.4  
 122    9:00   69.0    10    5.3   110     10.3   855.3    0.00     819    60.5  
 122    9:10   69.1    10    6.9   118     14.7   855.2    0.00     858    60.7  
 122    9:20   69.1    10    6.6   123     14.4   855.2    0.00     874    60.9  
 122    9:30   69.9    10    6.9   122     15.0   855.2    0.00     894    61.1  
 122    9:40   69.5    10    7.3   128     14.3   855.1    0.00     891    61.4  
 122    9:50   70.2    10    7.6   116     14.5   855.1    0.00     917    61.6  
 122   10:00   70.5     9    6.9   131     12.2   855.0    0.00     979    61.9  
 122   10:10   71.0     9    6.4   138     14.7   855.0    0.00     982    62.2  

Return to Garden Spring, Nevada graphs page.


Western Regional Climate Center,wrcc@dri.edu